sensor_id;sensor_type;location;lat;lon;timestamp;temperature;humidity
35692;DHT22;26978;44.830;-0.674;2023-04-03T00:00:49;10.20;99.90
35692;DHT22;26978;44.830;-0.674;2023-04-03T00:03:16;10.20;99.90
35692;DHT22;26978;44.830;-0.674;2023-04-03T00:05:42;10.20;99.90
35692;DHT22;26978;44.830;-0.674;2023-04-03T00:08:08;10.10;99.90
35692;DHT22;26978;44.830;-0.674;2023-04-03T00:10:36;10.10;99.90
35692;DHT22;26978;44.830;-0.674;2023-04-03T00:13:05;10.10;99.90
35692;DHT22;26978;44.830;-0.674;2023-04-03T00:15:32;10.10;99.90
35692;DHT22;26978;44.830;-0.674;2023-04-03T00:17:57;10.20;99.90
35692;DHT22;26978;44.830;-0.674;2023-04-03T00:20:23;10.10;99.90
35692;DHT22;26978;44.830;-0.674;2023-04-03T00:22:49;10.20;99.90
35692;DHT22;26978;44.830;-0.674;2023-04-03T00:25:14;10.10;99.90
35692;DHT22;26978;44.830;-0.674;2023-04-03T00:27:40;10.20;99.90
35692;DHT22;26978;44.830;-0.674;2023-04-03T00:30:08;10.10;99.90
35692;DHT22;26978;44.830;-0.674;2023-04-03T00:32:34;10.20;99.90
35692;DHT22;26978;44.830;-0.674;2023-04-03T00:34:59;10.10;99.90
35692;DHT22;26978;44.830;-0.674;2023-04-03T00:37:25;10.10;99.90
35692;DHT22;26978;44.830;-0.674;2023-04-03T00:39:51;10.10;99.90
35692;DHT22;26978;44.830;-0.674;2023-04-03T00:42:16;10.10;99.90
35692;DHT22;26978;44.830;-0.674;2023-04-03T00:47:11;10.00;99.90
35692;DHT22;26978;44.830;-0.674;2023-04-03T00:49:38;10.10;99.90
35692;DHT22;26978;44.830;-0.674;2023-04-03T00:52:06;10.00;99.90
35692;DHT22;26978;44.830;-0.674;2023-04-03T00:54:34;9.90;99.90
35692;DHT22;26978;44.830;-0.674;2023-04-03T00:57:01;10.00;99.90
35692;DHT22;26978;44.830;-0.674;2023-04-03T00:59:31;10.10;99.90
35692;DHT22;26978;44.830;-0.674;2023-04-03T01:01:59;10.00;99.90
35692;DHT22;26978;44.830;-0.674;2023-04-03T01:04:42;10.00;99.90
35692;DHT22;26978;44.830;-0.674;2023-04-03T01:07:11;10.00;99.90
35692;DHT22;26978;44.830;-0.674;2023-04-03T01:09:39;10.00;99.90
35692;DHT22;26978;44.830;-0.674;2023-04-03T01:14:45;10.00;99.90
35692;DHT22;26978;44.830;-0.674;2023-04-03T01:23:06;9.90;99.90
35692;DHT22;26978;44.830;-0.674;2023-04-03T01:25:32;9.90;99.90
35692;DHT22;26978;44.830;-0.674;2023-04-03T01:27:58;9.90;99.90
35692;DHT22;26978;44.830;-0.674;2023-04-03T01:30:31;9.90;99.90
35692;DHT22;26978;44.830;-0.674;2023-04-03T01:32:57;9.90;99.90
35692;DHT22;26978;44.830;-0.674;2023-04-03T01:35:23;9.90;99.90
35692;DHT22;26978;44.830;-0.674;2023-04-03T01:37:49;9.90;99.90
35692;DHT22;26978;44.830;-0.674;2023-04-03T01:40:14;9.90;99.90
35692;DHT22;26978;44.830;-0.674;2023-04-03T01:42:40;10.00;99.90
35692;DHT22;26978;44.830;-0.674;2023-04-03T01:45:06;10.00;99.90
35692;DHT22;26978;44.830;-0.674;2023-04-03T01:47:32;9.90;99.90
35692;DHT22;26978;44.830;-0.674;2023-04-03T01:49:58;9.90;99.90
35692;DHT22;26978;44.830;-0.674;2023-04-03T01:52:23;9.90;99.90
35692;DHT22;26978;44.830;-0.674;2023-04-03T01:54:49;9.90;99.90
35692;DHT22;26978;44.830;-0.674;2023-04-03T01:57:16;9.90;99.90
35692;DHT22;26978;44.830;-0.674;2023-04-03T01:59:42;9.80;99.90
35692;DHT22;26978;44.830;-0.674;2023-04-03T02:02:08;9.90;99.90
35692;DHT22;26978;44.830;-0.674;2023-04-03T02:04:33;9.90;99.90
35692;DHT22;26978;44.830;-0.674;2023-04-03T02:06:59;9.90;99.90
35692;DHT22;26978;44.830;-0.674;2023-04-03T02:09:25;9.80;99.90
35692;DHT22;26978;44.830;-0.674;2023-04-03T02:11:52;9.90;99.90
35692;DHT22;26978;44.830;-0.674;2023-04-03T02:14:18;9.90;99.90
35692;DHT22;26978;44.830;-0.674;2023-04-03T02:16:43;9.90;99.90
35692;DHT22;26978;44.830;-0.674;2023-04-03T02:19:09;9.80;99.90
35692;DHT22;26978;44.830;-0.674;2023-04-03T02:21:35;9.80;99.90
35692;DHT22;26978;44.830;-0.674;2023-04-03T02:24:00;9.90;99.90
35692;DHT22;26978;44.830;-0.674;2023-04-03T02:26:26;9.80;99.90
35692;DHT22;26978;44.830;-0.674;2023-04-03T02:28:52;9.80;99.90
35692;DHT22;26978;44.830;-0.674;2023-04-03T02:31:17;9.80;99.90
35692;DHT22;26978;44.830;-0.674;2023-04-03T02:33:44;9.80;99.90
35692;DHT22;26978;44.830;-0.674;2023-04-03T02:36:10;9.80;99.90
35692;DHT22;26978;44.830;-0.674;2023-04-03T02:38:36;9.80;99.90
35692;DHT22;26978;44.830;-0.674;2023-04-03T02:41:10;9.80;99.90
35692;DHT22;26978;44.830;-0.674;2023-04-03T02:43:36;9.80;99.90
35692;DHT22;26978;44.830;-0.674;2023-04-03T02:46:02;9.80;99.90
35692;DHT22;26978;44.830;-0.674;2023-04-03T02:48:28;9.80;99.90
35692;DHT22;26978;44.830;-0.674;2023-04-03T02:50:54;9.80;99.90
35692;DHT22;26978;44.830;-0.674;2023-04-03T02:53:20;9.80;99.90
35692;DHT22;26978;44.830;-0.674;2023-04-03T02:55:45;9.80;99.90
35692;DHT22;26978;44.830;-0.674;2023-04-03T02:58:11;9.70;99.90
35692;DHT22;26978;44.830;-0.674;2023-04-03T03:00:37;9.80;99.90
35692;DHT22;26978;44.830;-0.674;2023-04-03T03:03:03;9.70;99.90
35692;DHT22;26978;44.830;-0.674;2023-04-03T03:05:30;9.70;99.90
35692;DHT22;26978;44.830;-0.674;2023-04-03T03:07:56;9.70;99.90
35692;DHT22;26978;44.830;-0.674;2023-04-03T03:10:22;9.70;99.90
35692;DHT22;26978;44.830;-0.674;2023-04-03T03:12:48;9.70;99.90
35692;DHT22;26978;44.830;-0.674;2023-04-03T03:15:14;9.60;99.90
35692;DHT22;26978;44.830;-0.674;2023-04-03T03:17:41;9.70;99.90
35692;DHT22;26978;44.830;-0.674;2023-04-03T03:20:07;9.70;99.90
35692;DHT22;26978;44.830;-0.674;2023-04-03T03:22:34;9.60;99.90
35692;DHT22;26978;44.830;-0.674;2023-04-03T03:25:00;9.60;99.90
35692;DHT22;26978;44.830;-0.674;2023-04-03T03:27:27;9.60;99.90
35692;DHT22;26978;44.830;-0.674;2023-04-03T03:29:53;9.60;99.90
35692;DHT22;26978;44.830;-0.674;2023-04-03T03:32:18;9.60;99.90
35692;DHT22;26978;44.830;-0.674;2023-04-03T03:34:44;9.50;99.90
35692;DHT22;26978;44.830;-0.674;2023-04-03T03:37:10;9.50;99.90
35692;DHT22;26978;44.830;-0.674;2023-04-03T03:39:36;9.60;99.90
35692;DHT22;26978;44.830;-0.674;2023-04-03T03:42:01;9.50;99.90
35692;DHT22;26978;44.830;-0.674;2023-04-03T03:44:27;9.50;99.90
35692;DHT22;26978;44.830;-0.674;2023-04-03T03:46:54;9.60;99.90
35692;DHT22;26978;44.830;-0.674;2023-04-03T03:49:20;9.50;99.90
35692;DHT22;26978;44.830;-0.674;2023-04-03T03:51:46;9.50;99.90
35692;DHT22;26978;44.830;-0.674;2023-04-03T03:54:12;9.50;99.90
35692;DHT22;26978;44.830;-0.674;2023-04-03T03:56:38;9.50;99.90
35692;DHT22;26978;44.830;-0.674;2023-04-03T03:59:04;9.40;99.90
35692;DHT22;26978;44.830;-0.674;2023-04-03T04:01:29;9.40;99.90
35692;DHT22;26978;44.830;-0.674;2023-04-03T04:03:55;9.40;99.90
35692;DHT22;26978;44.830;-0.674;2023-04-03T04:06:21;9.40;99.90
35692;DHT22;26978;44.830;-0.674;2023-04-03T04:08:47;9.40;99.90
35692;DHT22;26978;44.830;-0.674;2023-04-03T04:11:12;9.40;99.90
35692;DHT22;26978;44.830;-0.674;2023-04-03T04:13:38;9.30;99.90
35692;DHT22;26978;44.830;-0.674;2023-04-03T04:16:04;9.30;99.90
35692;DHT22;26978;44.830;-0.674;2023-04-03T04:18:30;9.30;99.90
35692;DHT22;26978;44.830;-0.674;2023-04-03T04:20:56;9.30;99.90
35692;DHT22;26978;44.830;-0.674;2023-04-03T04:23:21;9.20;99.90
35692;DHT22;26978;44.830;-0.674;2023-04-03T04:25:48;9.30;99.90
35692;DHT22;26978;44.830;-0.674;2023-04-03T04:28:14;9.30;99.90
35692;DHT22;26978;44.830;-0.674;2023-04-03T04:30:40;9.20;99.90
35692;DHT22;26978;44.830;-0.674;2023-04-03T04:33:06;9.30;99.90
35692;DHT22;26978;44.830;-0.674;2023-04-03T04:35:32;9.30;99.90
35692;DHT22;26978;44.830;-0.674;2023-04-03T04:37:58;9.30;99.90
35692;DHT22;26978;44.830;-0.674;2023-04-03T04:40:24;9.20;99.90
35692;DHT22;26978;44.830;-0.674;2023-04-03T04:42:50;9.20;99.90
35692;DHT22;26978;44.830;-0.674;2023-04-03T04:45:15;9.30;99.90
35692;DHT22;26978;44.830;-0.674;2023-04-03T04:47:41;9.30;99.90
35692;DHT22;26978;44.830;-0.674;2023-04-03T04:50:07;9.30;99.90
35692;DHT22;26978;44.830;-0.674;2023-04-03T04:52:33;9.30;99.90
35692;DHT22;26978;44.830;-0.674;2023-04-03T04:54:59;9.20;99.90
35692;DHT22;26978;44.830;-0.674;2023-04-03T04:57:25;9.20;99.90
35692;DHT22;26978;44.830;-0.674;2023-04-03T04:59:50;9.20;99.90
35692;DHT22;26978;44.830;-0.674;2023-04-03T05:02:16;9.20;99.90
35692;DHT22;26978;44.830;-0.674;2023-04-03T05:04:42;9.20;99.90
35692;DHT22;26978;44.830;-0.674;2023-04-03T05:07:08;9.20;99.90
35692;DHT22;26978;44.830;-0.674;2023-04-03T05:09:33;9.20;99.90
35692;DHT22;26978;44.830;-0.674;2023-04-03T05:11:59;9.20;99.90
35692;DHT22;26978;44.830;-0.674;2023-04-03T05:14:25;9.20;99.90
35692;DHT22;26978;44.830;-0.674;2023-04-03T05:16:50;9.10;99.90
35692;DHT22;26978;44.830;-0.674;2023-04-03T05:19:20;9.10;99.90
35692;DHT22;26978;44.830;-0.674;2023-04-03T05:21:46;9.10;99.90
35692;DHT22;26978;44.830;-0.674;2023-04-03T05:24:12;9.10;99.90
35692;DHT22;26978;44.830;-0.674;2023-04-03T05:26:38;9.10;99.90
35692;DHT22;26978;44.830;-0.674;2023-04-03T05:29:04;9.00;99.90
35692;DHT22;26978;44.830;-0.674;2023-04-03T05:31:29;8.90;99.90
35692;DHT22;26978;44.830;-0.674;2023-04-03T05:33:56;8.90;99.90
35692;DHT22;26978;44.830;-0.674;2023-04-03T05:36:21;8.90;99.90
35692;DHT22;26978;44.830;-0.674;2023-04-03T05:38:47;8.90;99.90
35692;DHT22;26978;44.830;-0.674;2023-04-03T05:41:14;8.80;99.90
35692;DHT22;26978;44.830;-0.674;2023-04-03T05:43:40;8.90;99.90
35692;DHT22;26978;44.830;-0.674;2023-04-03T05:46:13;8.80;99.90
35692;DHT22;26978;44.830;-0.674;2023-04-03T05:48:39;8.80;99.90
35692;DHT22;26978;44.830;-0.674;2023-04-03T05:51:06;8.80;99.90
35692;DHT22;26978;44.830;-0.674;2023-04-03T05:53:34;8.80;99.90
35692;DHT22;26978;44.830;-0.674;2023-04-03T05:56:01;8.70;99.90
35692;DHT22;26978;44.830;-0.674;2023-04-03T05:58:26;8.70;99.90
35692;DHT22;26978;44.830;-0.674;2023-04-03T06:00:52;8.70;99.90
35692;DHT22;26978;44.830;-0.674;2023-04-03T06:03:18;8.60;99.90
35692;DHT22;26978;44.830;-0.674;2023-04-03T06:05:43;8.60;99.90
35692;DHT22;26978;44.830;-0.674;2023-04-03T06:08:09;8.60;99.90
35692;DHT22;26978;44.830;-0.674;2023-04-03T06:10:35;8.50;99.90
35692;DHT22;26978;44.830;-0.674;2023-04-03T06:13:01;8.50;99.90
35692;DHT22;26978;44.830;-0.674;2023-04-03T06:15:27;8.60;99.90
35692;DHT22;26978;44.830;-0.674;2023-04-03T06:17:53;8.50;99.90
35692;DHT22;26978;44.830;-0.674;2023-04-03T06:20:19;8.50;99.90
35692;DHT22;26978;44.830;-0.674;2023-04-03T06:22:45;8.40;99.90
35692;DHT22;26978;44.830;-0.674;2023-04-03T06:25:11;8.40;99.90
35692;DHT22;26978;44.830;-0.674;2023-04-03T06:27:37;8.40;99.90
35692;DHT22;26978;44.830;-0.674;2023-04-03T06:30:03;8.40;99.90
35692;DHT22;26978;44.830;-0.674;2023-04-03T06:32:29;8.40;99.90
35692;DHT22;26978;44.830;-0.674;2023-04-03T06:34:55;8.40;99.90
35692;DHT22;26978;44.830;-0.674;2023-04-03T06:37:22;8.40;99.90
35692;DHT22;26978;44.830;-0.674;2023-04-03T06:39:48;8.40;99.90
35692;DHT22;26978;44.830;-0.674;2023-04-03T06:42:14;8.50;99.90
35692;DHT22;26978;44.830;-0.674;2023-04-03T06:44:40;8.50;99.90
35692;DHT22;26978;44.830;-0.674;2023-04-03T06:47:05;8.50;99.90
35692;DHT22;26978;44.830;-0.674;2023-04-03T06:49:31;8.40;99.90
35692;DHT22;26978;44.830;-0.674;2023-04-03T06:51:57;8.40;99.90
35692;DHT22;26978;44.830;-0.674;2023-04-03T06:54:23;8.40;99.90
35692;DHT22;26978;44.830;-0.674;2023-04-03T06:56:49;8.40;99.90
35692;DHT22;26978;44.830;-0.674;2023-04-03T06:59:15;8.40;99.90
35692;DHT22;26978;44.830;-0.674;2023-04-03T07:01:41;8.40;99.90
35692;DHT22;26978;44.830;-0.674;2023-04-03T07:04:07;8.40;99.90
35692;DHT22;26978;44.830;-0.674;2023-04-03T07:06:33;8.40;99.90
35692;DHT22;26978;44.830;-0.674;2023-04-03T07:09:00;8.50;99.90
35692;DHT22;26978;44.830;-0.674;2023-04-03T07:11:26;8.50;99.90
35692;DHT22;26978;44.830;-0.674;2023-04-03T07:13:52;8.50;99.90
35692;DHT22;26978;44.830;-0.674;2023-04-03T07:16:18;8.60;99.90
35692;DHT22;26978;44.830;-0.674;2023-04-03T07:18:44;8.60;99.90
35692;DHT22;26978;44.830;-0.674;2023-04-03T07:21:10;8.60;99.90
35692;DHT22;26978;44.830;-0.674;2023-04-03T07:23:36;8.60;99.90
35692;DHT22;26978;44.830;-0.674;2023-04-03T07:26:02;8.60;99.90
35692;DHT22;26978;44.830;-0.674;2023-04-03T07:28:28;8.60;99.90
35692;DHT22;26978;44.830;-0.674;2023-04-03T07:31:02;8.60;99.90
35692;DHT22;26978;44.830;-0.674;2023-04-03T07:33:28;8.70;99.90
35692;DHT22;26978;44.830;-0.674;2023-04-03T07:35:54;8.80;99.90
35692;DHT22;26978;44.830;-0.674;2023-04-03T07:38:20;8.80;99.90
35692;DHT22;26978;44.830;-0.674;2023-04-03T07:40:49;8.80;99.90
35692;DHT22;26978;44.830;-0.674;2023-04-03T07:43:16;8.80;99.90
35692;DHT22;26978;44.830;-0.674;2023-04-03T07:45:42;8.90;99.90
35692;DHT22;26978;44.830;-0.674;2023-04-03T07:48:10;9.00;99.90
35692;DHT22;26978;44.830;-0.674;2023-04-03T07:50:36;9.00;99.90
35692;DHT22;26978;44.830;-0.674;2023-04-03T07:53:02;9.00;99.90
35692;DHT22;26978;44.830;-0.674;2023-04-03T07:55:28;9.00;99.90
35692;DHT22;26978;44.830;-0.674;2023-04-03T07:57:54;9.10;99.90
35692;DHT22;26978;44.830;-0.674;2023-04-03T08:00:20;9.10;99.90
35692;DHT22;26978;44.830;-0.674;2023-04-03T08:02:46;9.20;99.90
35692;DHT22;26978;44.830;-0.674;2023-04-03T08:05:17;9.20;99.90
35692;DHT22;26978;44.830;-0.674;2023-04-03T08:07:43;9.30;99.90
35692;DHT22;26978;44.830;-0.674;2023-04-03T08:10:09;9.30;99.90
35692;DHT22;26978;44.830;-0.674;2023-04-03T08:12:34;9.40;99.90
35692;DHT22;26978;44.830;-0.674;2023-04-03T08:15:02;9.50;99.90
35692;DHT22;26978;44.830;-0.674;2023-04-03T08:17:28;9.50;99.90
35692;DHT22;26978;44.830;-0.674;2023-04-03T08:19:54;9.50;99.90
35692;DHT22;26978;44.830;-0.674;2023-04-03T08:22:20;9.60;99.90
35692;DHT22;26978;44.830;-0.674;2023-04-03T08:24:46;9.60;99.90
35692;DHT22;26978;44.830;-0.674;2023-04-03T08:27:12;9.60;99.90
35692;DHT22;26978;44.830;-0.674;2023-04-03T08:29:38;9.60;99.90
35692;DHT22;26978;44.830;-0.674;2023-04-03T08:32:04;9.70;99.90
35692;DHT22;26978;44.830;-0.674;2023-04-03T08:34:31;9.70;99.90
35692;DHT22;26978;44.830;-0.674;2023-04-03T08:37:00;9.90;99.90
35692;DHT22;26978;44.830;-0.674;2023-04-03T08:39:26;10.00;99.90
35692;DHT22;26978;44.830;-0.674;2023-04-03T08:41:55;10.00;99.90
35692;DHT22;26978;44.830;-0.674;2023-04-03T08:44:25;10.10;99.90
35692;DHT22;26978;44.830;-0.674;2023-04-03T08:49:56;10.20;99.90
35692;DHT22;26978;44.830;-0.674;2023-04-03T08:52:34;10.20;99.90
35692;DHT22;26978;44.830;-0.674;2023-04-03T08:55:25;10.40;99.90
35692;DHT22;26978;44.830;-0.674;2023-04-03T08:57:54;10.20;99.90
35692;DHT22;26978;44.830;-0.674;2023-04-03T09:00:24;10.40;99.90
35692;DHT22;26978;44.830;-0.674;2023-04-03T09:02:52;10.50;99.90
35692;DHT22;26978;44.830;-0.674;2023-04-03T09:08:00;10.70;99.90
35692;DHT22;26978;44.830;-0.674;2023-04-03T09:10:33;10.70;99.90
35692;DHT22;26978;44.830;-0.674;2023-04-03T09:13:08;10.80;99.90
35692;DHT22;26978;44.830;-0.674;2023-04-03T09:15:36;10.80;99.90
35692;DHT22;26978;44.830;-0.674;2023-04-03T09:18:32;10.70;99.90
35692;DHT22;26978;44.830;-0.674;2023-04-03T09:23:58;11.20;99.90
35692;DHT22;26978;44.830;-0.674;2023-04-03T09:26:30;11.20;99.90
35692;DHT22;26978;44.830;-0.674;2023-04-03T09:29:00;11.10;99.90
35692;DHT22;26978;44.830;-0.674;2023-04-03T09:31:36;11.00;99.90
35692;DHT22;26978;44.830;-0.674;2023-04-03T09:34:06;11.00;99.90
35692;DHT22;26978;44.830;-0.674;2023-04-03T09:39:17;11.10;99.90
35692;DHT22;26978;44.830;-0.674;2023-04-03T09:44:23;11.60;99.90
35692;DHT22;26978;44.830;-0.674;2023-04-03T09:46:49;11.80;99.90
35692;DHT22;26978;44.830;-0.674;2023-04-03T09:49:15;12.00;99.90
35692;DHT22;26978;44.830;-0.674;2023-04-03T09:51:41;12.00;99.90
35692;DHT22;26978;44.830;-0.674;2023-04-03T09:54:39;11.80;99.90
35692;DHT22;26978;44.830;-0.674;2023-04-03T09:57:12;11.50;99.90
35692;DHT22;26978;44.830;-0.674;2023-04-03T09:59:57;11.60;99.90
35692;DHT22;26978;44.830;-0.674;2023-04-03T10:04:59;11.50;99.90
35692;DHT22;26978;44.830;-0.674;2023-04-03T10:07:35;11.30;99.90
35692;DHT22;26978;44.830;-0.674;2023-04-03T10:12:40;11.10;99.90
35692;DHT22;26978;44.830;-0.674;2023-04-03T10:15:15;11.10;99.90
35692;DHT22;26978;44.830;-0.674;2023-04-03T10:17:54;11.30;99.90
35692;DHT22;26978;44.830;-0.674;2023-04-03T10:20:46;11.80;99.90
35692;DHT22;26978;44.830;-0.674;2023-04-03T10:28:47;12.40;99.90
35692;DHT22;26978;44.830;-0.674;2023-04-03T10:31:36;12.20;99.90
35692;DHT22;26978;44.830;-0.674;2023-04-03T10:34:27;12.00;99.90
35692;DHT22;26978;44.830;-0.674;2023-04-03T10:37:26;11.90;99.90
35692;DHT22;26978;44.830;-0.674;2023-04-03T10:39:58;12.10;99.90
35692;DHT22;26978;44.830;-0.674;2023-04-03T10:43:08;12.20;99.90
35692;DHT22;26978;44.830;-0.674;2023-04-03T10:45:56;12.70;99.90
35692;DHT22;26978;44.830;-0.674;2023-04-03T10:51:01;13.50;99.90
35692;DHT22;26978;44.830;-0.674;2023-04-03T10:54:08;13.50;99.90
35692;DHT22;26978;44.830;-0.674;2023-04-03T10:56:57;13.50;99.90
35692;DHT22;26978;44.830;-0.674;2023-04-03T10:59:34;12.80;99.90
35692;DHT22;26978;44.830;-0.674;2023-04-03T11:02:28;12.60;99.90
35692;DHT22;26978;44.830;-0.674;2023-04-03T11:07:49;12.50;99.90
35692;DHT22;26978;44.830;-0.674;2023-04-03T11:11:00;12.90;99.90
35692;DHT22;26978;44.830;-0.674;2023-04-03T11:23:48;13.50;99.90
35692;DHT22;26978;44.830;-0.674;2023-04-03T11:29:28;13.60;99.90
35692;DHT22;26978;44.830;-0.674;2023-04-03T11:35:50;13.30;99.90
35692;DHT22;26978;44.830;-0.674;2023-04-03T11:38:31;13.20;99.90
35692;DHT22;26978;44.830;-0.674;2023-04-03T11:41:02;13.20;99.90
35692;DHT22;26978;44.830;-0.674;2023-04-03T11:46:53;13.40;99.90
35692;DHT22;26978;44.830;-0.674;2023-04-03T12:08:46;13.30;99.90
35692;DHT22;26978;44.830;-0.674;2023-04-03T12:11:25;13.40;99.90
35692;DHT22;26978;44.830;-0.674;2023-04-03T12:16:48;13.70;99.90
35692;DHT22;26978;44.830;-0.674;2023-04-03T12:29:56;13.80;99.90
35692;DHT22;26978;44.830;-0.674;2023-04-03T12:32:40;13.70;99.90
35692;DHT22;26978;44.830;-0.674;2023-04-03T12:35:31;13.80;99.90
35692;DHT22;26978;44.830;-0.674;2023-04-03T12:41:18;14.60;99.90
35692;DHT22;26978;44.830;-0.674;2023-04-03T12:43:53;14.60;99.90
35692;DHT22;26978;44.830;-0.674;2023-04-03T12:46:24;14.90;99.90
35692;DHT22;26978;44.830;-0.674;2023-04-03T12:48:54;14.80;99.90
35692;DHT22;26978;44.830;-0.674;2023-04-03T12:54:00;14.30;99.90
35692;DHT22;26978;44.830;-0.674;2023-04-03T12:56:29;13.80;99.90
35692;DHT22;26978;44.830;-0.674;2023-04-03T12:59:13;14.00;99.90
35692;DHT22;26978;44.830;-0.674;2023-04-03T13:01:38;14.40;99.90
35692;DHT22;26978;44.830;-0.674;2023-04-03T13:04:04;14.70;99.90
35692;DHT22;26978;44.830;-0.674;2023-04-03T13:06:42;14.80;99.90
35692;DHT22;26978;44.830;-0.674;2023-04-03T13:09:27;15.00;99.90
35692;DHT22;26978;44.830;-0.674;2023-04-03T13:12:10;15.10;99.90
35692;DHT22;26978;44.830;-0.674;2023-04-03T13:14:37;15.20;99.90
35692;DHT22;26978;44.830;-0.674;2023-04-03T13:17:15;15.00;99.90
35692;DHT22;26978;44.830;-0.674;2023-04-03T13:19:43;15.50;99.90
35692;DHT22;26978;44.830;-0.674;2023-04-03T13:24:43;16.30;99.90
35692;DHT22;26978;44.830;-0.674;2023-04-03T13:27:14;16.30;99.90
35692;DHT22;26978;44.830;-0.674;2023-04-03T13:29:40;16.60;99.90
35692;DHT22;26978;44.830;-0.674;2023-04-03T13:32:06;16.90;99.90
35692;DHT22;26978;44.830;-0.674;2023-04-03T13:34:42;17.20;99.90
35692;DHT22;26978;44.830;-0.674;2023-04-03T13:37:27;17.60;99.90
35692;DHT22;26978;44.830;-0.674;2023-04-03T13:40:12;18.80;99.90
35692;DHT22;26978;44.830;-0.674;2023-04-03T13:42:39;18.70;95.70
35692;DHT22;26978;44.830;-0.674;2023-04-03T13:45:19;17.50;95.30
35692;DHT22;26978;44.830;-0.674;2023-04-03T13:47:46;16.90;98.00
35692;DHT22;26978;44.830;-0.674;2023-04-03T13:50:21;16.10;99.90
35692;DHT22;26978;44.830;-0.674;2023-04-03T13:53:24;17.70;99.30
35692;DHT22;26978;44.830;-0.674;2023-04-03T13:58:32;19.70;93.20
35692;DHT22;26978;44.830;-0.674;2023-04-03T14:06:11;20.10;93.50
35692;DHT22;26978;44.830;-0.674;2023-04-03T14:08:37;19.70;92.20
35692;DHT22;26978;44.830;-0.674;2023-04-03T14:11:03;20.00;92.70
35692;DHT22;26978;44.830;-0.674;2023-04-03T14:13:30;20.00;90.30
35692;DHT22;26978;44.830;-0.674;2023-04-03T14:15:56;19.70;92.50
35692;DHT22;26978;44.830;-0.674;2023-04-03T14:18:22;20.00;90.30
35692;DHT22;26978;44.830;-0.674;2023-04-03T14:20:48;20.70;86.70
35692;DHT22;26978;44.830;-0.674;2023-04-03T14:23:15;20.20;87.10
35692;DHT22;26978;44.830;-0.674;2023-04-03T14:25:41;20.20;89.80
35692;DHT22;26978;44.830;-0.674;2023-04-03T14:28:18;21.00;90.30
35692;DHT22;26978;44.830;-0.674;2023-04-03T14:30:45;20.70;87.40
35692;DHT22;26978;44.830;-0.674;2023-04-03T14:33:17;20.10;86.40
35692;DHT22;26978;44.830;-0.674;2023-04-03T14:35:43;20.70;86.10
35692;DHT22;26978;44.830;-0.674;2023-04-03T14:38:25;19.30;82.70
35692;DHT22;26978;44.830;-0.674;2023-04-03T14:40:52;19.00;89.50
35692;DHT22;26978;44.830;-0.674;2023-04-03T14:43:18;19.60;87.50
35692;DHT22;26978;44.830;-0.674;2023-04-03T14:45:46;21.10;87.90
35692;DHT22;26978;44.830;-0.674;2023-04-03T14:48:18;21.50;80.70
35692;DHT22;26978;44.830;-0.674;2023-04-03T14:50:44;21.40;87.70
35692;DHT22;26978;44.830;-0.674;2023-04-03T14:53:12;19.20;82.90
35692;DHT22;26978;44.830;-0.674;2023-04-03T14:55:41;19.20;90.30
35692;DHT22;26978;44.830;-0.674;2023-04-03T14:58:11;20.00;86.00
35692;DHT22;26978;44.830;-0.674;2023-04-03T15:00:38;21.00;91.00
35692;DHT22;26978;44.830;-0.674;2023-04-03T15:03:03;20.60;86.20
35692;DHT22;26978;44.830;-0.674;2023-04-03T15:05:29;21.80;80.80
35692;DHT22;26978;44.830;-0.674;2023-04-03T15:07:55;20.80;75.10
35692;DHT22;26978;44.830;-0.674;2023-04-03T15:10:25;20.90;81.10
35692;DHT22;26978;44.830;-0.674;2023-04-03T15:12:51;21.10;77.80
35692;DHT22;26978;44.830;-0.674;2023-04-03T15:15:19;20.90;76.10
35692;DHT22;26978;44.830;-0.674;2023-04-03T15:17:46;19.50;80.70
35692;DHT22;26978;44.830;-0.674;2023-04-03T15:20:19;17.80;87.20
35692;DHT22;26978;44.830;-0.674;2023-04-03T15:22:45;17.10;93.00
35692;DHT22;26978;44.830;-0.674;2023-04-03T15:25:11;18.00;94.50
35692;DHT22;26978;44.830;-0.674;2023-04-03T15:27:38;20.00;90.80
35692;DHT22;26978;44.830;-0.674;2023-04-03T15:30:05;20.70;81.40
35692;DHT22;26978;44.830;-0.674;2023-04-03T15:32:31;20.80;80.60
35692;DHT22;26978;44.830;-0.674;2023-04-03T15:34:57;21.50;78.40
35692;DHT22;26978;44.830;-0.674;2023-04-03T15:37:23;22.10;81.60
35692;DHT22;26978;44.830;-0.674;2023-04-03T15:39:48;22.20;73.90
35692;DHT22;26978;44.830;-0.674;2023-04-03T15:42:14;22.40;73.50
35692;DHT22;26978;44.830;-0.674;2023-04-03T15:44:40;22.60;75.10
35692;DHT22;26978;44.830;-0.674;2023-04-03T15:47:06;22.70;69.70
35692;DHT22;26978;44.830;-0.674;2023-04-03T15:49:35;19.90;71.50
35692;DHT22;26978;44.830;-0.674;2023-04-03T15:52:01;17.90;82.60
35692;DHT22;26978;44.830;-0.674;2023-04-03T15:54:27;17.30;90.40
35692;DHT22;26978;44.830;-0.674;2023-04-03T15:56:55;17.50;94.60
35692;DHT22;26978;44.830;-0.674;2023-04-03T15:59:21;19.70;91.10
35692;DHT22;26978;44.830;-0.674;2023-04-03T16:01:47;20.50;90.30
35692;DHT22;26978;44.830;-0.674;2023-04-03T16:04:13;20.80;90.90
35692;DHT22;26978;44.830;-0.674;2023-04-03T16:06:40;20.60;88.50
35692;DHT22;26978;44.830;-0.674;2023-04-03T16:09:06;19.50;90.50
35692;DHT22;26978;44.830;-0.674;2023-04-03T16:11:32;17.30;97.00
35692;DHT22;26978;44.830;-0.674;2023-04-03T16:14:00;17.80;99.30
35692;DHT22;26978;44.830;-0.674;2023-04-03T16:16:26;18.90;95.60
35692;DHT22;26978;44.830;-0.674;2023-04-03T16:18:54;20.10;93.30
35692;DHT22;26978;44.830;-0.674;2023-04-03T16:21:21;20.30;92.20
35692;DHT22;26978;44.830;-0.674;2023-04-03T16:23:46;20.60;91.20
35692;DHT22;26978;44.830;-0.674;2023-04-03T16:26:12;19.10;93.50
35692;DHT22;26978;44.830;-0.674;2023-04-03T16:28:38;17.70;95.50
35692;DHT22;26978;44.830;-0.674;2023-04-03T16:31:05;18.30;95.80
35692;DHT22;26978;44.830;-0.674;2023-04-03T16:33:31;19.10;95.50
35692;DHT22;26978;44.830;-0.674;2023-04-03T16:35:56;19.90;93.00
35692;DHT22;26978;44.830;-0.674;2023-04-03T16:38:22;20.30;91.10
35692;DHT22;26978;44.830;-0.674;2023-04-03T16:40:48;20.40;91.10
35692;DHT22;26978;44.830;-0.674;2023-04-03T16:43:15;19.90;90.90
35692;DHT22;26978;44.830;-0.674;2023-04-03T16:45:41;19.20;91.20
35692;DHT22;26978;44.830;-0.674;2023-04-03T16:48:07;18.40;93.40
35692;DHT22;26978;44.830;-0.674;2023-04-03T16:50:33;18.20;94.00
35692;DHT22;26978;44.830;-0.674;2023-04-03T16:52:59;17.30;96.40
35692;DHT22;26978;44.830;-0.674;2023-04-03T16:55:25;16.60;99.00
35692;DHT22;26978;44.830;-0.674;2023-04-03T16:57:50;16.70;99.90
35692;DHT22;26978;44.830;-0.674;2023-04-03T17:00:16;17.20;98.20
35692;DHT22;26978;44.830;-0.674;2023-04-03T17:02:42;17.60;98.10
35692;DHT22;26978;44.830;-0.674;2023-04-03T17:05:08;17.70;96.40
35692;DHT22;26978;44.830;-0.674;2023-04-03T17:07:33;17.70;96.90
35692;DHT22;26978;44.830;-0.674;2023-04-03T17:09:59;17.40;96.90
35692;DHT22;26978;44.830;-0.674;2023-04-03T17:12:25;16.80;98.00
35692;DHT22;26978;44.830;-0.674;2023-04-03T17:14:51;16.70;99.90
35692;DHT22;26978;44.830;-0.674;2023-04-03T17:17:21;16.70;99.40
35692;DHT22;26978;44.830;-0.674;2023-04-03T17:19:47;16.80;99.50
35692;DHT22;26978;44.830;-0.674;2023-04-03T17:22:13;16.50;99.90